Hixson, Tennessee
Current Conditions -  °F | °C
As of 8:53 PM on Wednesday 22 Oct 2014 (Local Time) from KCHA Reporting Station
Clear Clear  
Wind Chill: 51°   Ceiling: Unl
Heat Index: 51°   Visibility: 10mi
Dew Point: 44°   Wind: 3mph
Humidity: 77%   Direction: 340°NNW
Pressure: 30.17"   Gusts: NA
Location:  35.14°N, 85.23°W
Report Text: KCHA 230053Z 34003KT 10SM CLR 11/07 A3017 RMK AO2 SLP217 T01060067
Loading
Personal Weather Stations






























Interactive Weather Map
Tropical Storm Tracking
New forecast layout! Learn more

10-Day Weather Forecast

Advertisements
Track Severe Weather on mobile